sensor_id;sensor_type;location;lat;lon;timestamp;temperature;humidity
33067;DHT22;19428;49.024;8.366;2023-02-28T00:00:01;0.30;86.80
33067;DHT22;19428;49.024;8.366;2023-02-28T00:02:34;0.20;87.20
33067;DHT22;19428;49.024;8.366;2023-02-28T00:05:00;0.20;86.90
33067;DHT22;19428;49.024;8.366;2023-02-28T00:07:27;0.20;87.40
33067;DHT22;19428;49.024;8.366;2023-02-28T00:09:53;0.30;86.80
33067;DHT22;19428;49.024;8.366;2023-02-28T00:12:19;0.20;86.90
33067;DHT22;19428;49.024;8.366;2023-02-28T00:14:44;0.20;87.40
33067;DHT22;19428;49.024;8.366;2023-02-28T00:17:10;0.30;87.10
33067;DHT22;19428;49.024;8.366;2023-02-28T00:19:35;0.20;87.30
33067;DHT22;19428;49.024;8.366;2023-02-28T00:22:01;0.10;88.10
33067;DHT22;19428;49.024;8.366;2023-02-28T00:24:26;0.10;88.20
33067;DHT22;19428;49.024;8.366;2023-02-28T00:26:52;0.10;88.60
33067;DHT22;19428;49.024;8.366;2023-02-28T00:29:17;0.10;88.40
33067;DHT22;19428;49.024;8.366;2023-02-28T00:31:43;0.10;89.00
33067;DHT22;19428;49.024;8.366;2023-02-28T00:34:08;0.10;89.20
33067;DHT22;19428;49.024;8.366;2023-02-28T00:36:34;0.10;89.30
33067;DHT22;19428;49.024;8.366;2023-02-28T00:38:59;0.10;89.50
33067;DHT22;19428;49.024;8.366;2023-02-28T00:41:25;0.10;89.60
33067;DHT22;19428;49.024;8.366;2023-02-28T00:43:50;0.00;89.60
33067;DHT22;19428;49.024;8.366;2023-02-28T00:46:16;-0.10;90.20
33067;DHT22;19428;49.024;8.366;2023-02-28T00:48:44;0.00;90.20
33067;DHT22;19428;49.024;8.366;2023-02-28T00:51:10;0.00;90.10
33067;DHT22;19428;49.024;8.366;2023-02-28T00:53:35;0.00;90.20
33067;DHT22;19428;49.024;8.366;2023-02-28T00:56:02;0.10;90.10
33067;DHT22;19428;49.024;8.366;2023-02-28T00:58:28;0.00;90.20
33067;DHT22;19428;49.024;8.366;2023-02-28T01:00:54;-0.10;90.40
33067;DHT22;19428;49.024;8.366;2023-02-28T01:03:20;-0.10;90.70
33067;DHT22;19428;49.024;8.366;2023-02-28T01:05:47;-0.10;90.90
33067;DHT22;19428;49.024;8.366;2023-02-28T01:08:14;-0.20;91.10
33067;DHT22;19428;49.024;8.366;2023-02-28T01:10:39;-0.20;91.20
33067;DHT22;19428;49.024;8.366;2023-02-28T01:13:05;-0.20;91.20
33067;DHT22;19428;49.024;8.366;2023-02-28T01:15:31;-0.20;91.40
33067;DHT22;19428;49.024;8.366;2023-02-28T01:17:58;-0.20;91.40
33067;DHT22;19428;49.024;8.366;2023-02-28T01:20:23;-0.20;91.60
33067;DHT22;19428;49.024;8.366;2023-02-28T01:22:49;-0.30;91.80
33067;DHT22;19428;49.024;8.366;2023-02-28T01:25:15;-0.20;91.90
33067;DHT22;19428;49.024;8.366;2023-02-28T01:27:40;-0.30;92.10
33067;DHT22;19428;49.024;8.366;2023-02-28T01:30:09;-0.30;92.20
33067;DHT22;19428;49.024;8.366;2023-02-28T01:32:36;-0.30;92.30
33067;DHT22;19428;49.024;8.366;2023-02-28T01:35:01;-0.30;92.40
33067;DHT22;19428;49.024;8.366;2023-02-28T01:37:27;-0.40;92.70
33067;DHT22;19428;49.024;8.366;2023-02-28T01:39:53;-0.40;92.80
33067;DHT22;19428;49.024;8.366;2023-02-28T01:42:19;-0.40;92.90
33067;DHT22;19428;49.024;8.366;2023-02-28T01:44:55;-0.40;93.00
33067;DHT22;19428;49.024;8.366;2023-02-28T01:47:22;-0.40;93.20
33067;DHT22;19428;49.024;8.366;2023-02-28T01:49:50;-0.40;93.30
33067;DHT22;19428;49.024;8.366;2023-02-28T01:52:17;-0.30;93.30
33067;DHT22;19428;49.024;8.366;2023-02-28T01:54:49;-0.50;93.10
33067;DHT22;19428;49.024;8.366;2023-02-28T01:57:19;-0.50;93.70
33067;DHT22;19428;49.024;8.366;2023-02-28T01:59:59;-0.40;93.80
33067;DHT22;19428;49.024;8.366;2023-02-28T02:02:27;-0.40;93.80
33067;DHT22;19428;49.024;8.366;2023-02-28T02:04:55;-0.40;93.90
33067;DHT22;19428;49.024;8.366;2023-02-28T02:07:23;-0.50;94.00
33067;DHT22;19428;49.024;8.366;2023-02-28T02:09:50;-0.50;94.30
33067;DHT22;19428;49.024;8.366;2023-02-28T02:12:59;-0.30;94.30
33067;DHT22;19428;49.024;8.366;2023-02-28T02:15:34;-0.40;94.40
33067;DHT22;19428;49.024;8.366;2023-02-28T02:26:39;-0.40;94.60
33067;DHT22;19428;49.024;8.366;2023-02-28T02:29:32;-0.50;95.00
33067;DHT22;19428;49.024;8.366;2023-02-28T02:32:14;-0.40;94.80
33067;DHT22;19428;49.024;8.366;2023-02-28T02:43:48;-0.50;95.30
33067;DHT22;19428;49.024;8.366;2023-02-28T02:48:52;-0.40;95.40
33067;DHT22;19428;49.024;8.366;2023-02-28T02:51:20;-0.40;95.30
33067;DHT22;19428;49.024;8.366;2023-02-28T02:53:51;-0.60;95.70
33067;DHT22;19428;49.024;8.366;2023-02-28T02:56:21;-0.50;95.80
33067;DHT22;19428;49.024;8.366;2023-02-28T02:58:49;-0.50;95.90
33067;DHT22;19428;49.024;8.366;2023-02-28T03:01:19;-0.50;96.10
33067;DHT22;19428;49.024;8.366;2023-02-28T03:04:16;-0.60;96.20
33067;DHT22;19428;49.024;8.366;2023-02-28T03:06:42;-0.60;96.50
33067;DHT22;19428;49.024;8.366;2023-02-28T03:09:07;-0.60;96.50
33067;DHT22;19428;49.024;8.366;2023-02-28T03:11:35;-0.50;96.50
33067;DHT22;19428;49.024;8.366;2023-02-28T03:17:15;-0.50;96.70
33067;DHT22;19428;49.024;8.366;2023-02-28T03:20:04;-0.50;96.50
33067;DHT22;19428;49.024;8.366;2023-02-28T03:25:19;-0.50;96.60
33067;DHT22;19428;49.024;8.366;2023-02-28T03:28:17;-0.50;96.80
33067;DHT22;19428;49.024;8.366;2023-02-28T03:30:54;-0.50;97.10
33067;DHT22;19428;49.024;8.366;2023-02-28T03:35:55;-0.40;97.20
33067;DHT22;19428;49.024;8.366;2023-02-28T03:38:40;-0.40;96.90
33067;DHT22;19428;49.024;8.366;2023-02-28T03:41:28;-0.30;96.80
33067;DHT22;19428;49.024;8.366;2023-02-28T03:44:06;-0.30;96.80
33067;DHT22;19428;49.024;8.366;2023-02-28T03:46:38;-0.40;97.10
33067;DHT22;19428;49.024;8.366;2023-02-28T03:49:20;-0.30;96.80
33067;DHT22;19428;49.024;8.366;2023-02-28T03:51:50;-0.30;96.50
33067;DHT22;19428;49.024;8.366;2023-02-28T03:54:19;-0.20;96.60
33067;DHT22;19428;49.024;8.366;2023-02-28T04:00:05;-0.30;96.70
33067;DHT22;19428;49.024;8.366;2023-02-28T04:02:32;-0.20;96.80
33067;DHT22;19428;49.024;8.366;2023-02-28T04:04:58;-0.30;96.70
33067;DHT22;19428;49.024;8.366;2023-02-28T04:07:25;-0.30;96.70
33067;DHT22;19428;49.024;8.366;2023-02-28T04:09:53;-0.30;96.70
33067;DHT22;19428;49.024;8.366;2023-02-28T04:12:19;-0.20;96.50
33067;DHT22;19428;49.024;8.366;2023-02-28T04:14:46;-0.20;96.70
33067;DHT22;19428;49.024;8.366;2023-02-28T04:17:11;-0.20;96.60
33067;DHT22;19428;49.024;8.366;2023-02-28T04:19:37;-0.20;96.60
33067;DHT22;19428;49.024;8.366;2023-02-28T04:22:03;-0.20;96.40
33067;DHT22;19428;49.024;8.366;2023-02-28T04:24:28;-0.20;96.40
33067;DHT22;19428;49.024;8.366;2023-02-28T04:26:55;-0.20;96.40
33067;DHT22;19428;49.024;8.366;2023-02-28T04:29:31;-0.20;96.50
33067;DHT22;19428;49.024;8.366;2023-02-28T04:32:01;-0.20;96.60
33067;DHT22;19428;49.024;8.366;2023-02-28T04:34:28;-0.20;96.70
33067;DHT22;19428;49.024;8.366;2023-02-28T04:36:54;-0.20;96.50
33067;DHT22;19428;49.024;8.366;2023-02-28T04:39:24;-0.20;96.50
33067;DHT22;19428;49.024;8.366;2023-02-28T04:41:50;-0.20;96.50
33067;DHT22;19428;49.024;8.366;2023-02-28T04:44:16;-0.20;96.50
33067;DHT22;19428;49.024;8.366;2023-02-28T04:46:42;-0.20;96.50
33067;DHT22;19428;49.024;8.366;2023-02-28T04:49:11;-0.20;97.00
33067;DHT22;19428;49.024;8.366;2023-02-28T04:51:37;-0.20;96.80
33067;DHT22;19428;49.024;8.366;2023-02-28T04:54:03;-0.20;96.80
33067;DHT22;19428;49.024;8.366;2023-02-28T04:56:29;-0.20;96.60
33067;DHT22;19428;49.024;8.366;2023-02-28T04:58:54;-0.20;96.90
33067;DHT22;19428;49.024;8.366;2023-02-28T05:03:51;-0.20;96.90
33067;DHT22;19428;49.024;8.366;2023-02-28T05:06:18;-0.30;97.00
33067;DHT22;19428;49.024;8.366;2023-02-28T05:08:44;-0.30;96.90
33067;DHT22;19428;49.024;8.366;2023-02-28T05:11:16;-0.40;96.90
33067;DHT22;19428;49.024;8.366;2023-02-28T05:13:42;-0.30;97.00
33067;DHT22;19428;49.024;8.366;2023-02-28T05:16:07;-0.30;97.10
33067;DHT22;19428;49.024;8.366;2023-02-28T05:18:33;-0.30;97.30
33067;DHT22;19428;49.024;8.366;2023-02-28T05:21:00;-0.40;97.40
33067;DHT22;19428;49.024;8.366;2023-02-28T05:23:27;-0.40;97.50
33067;DHT22;19428;49.024;8.366;2023-02-28T05:29:15;-0.40;97.80
33067;DHT22;19428;49.024;8.366;2023-02-28T05:31:40;-0.40;97.80
33067;DHT22;19428;49.024;8.366;2023-02-28T05:34:06;-0.50;97.90
33067;DHT22;19428;49.024;8.366;2023-02-28T05:36:32;-0.40;97.90
33067;DHT22;19428;49.024;8.366;2023-02-28T05:38:58;-0.40;97.90
33067;DHT22;19428;49.024;8.366;2023-02-28T05:41:24;-0.40;98.00
33067;DHT22;19428;49.024;8.366;2023-02-28T05:43:49;-0.40;98.20
33067;DHT22;19428;49.024;8.366;2023-02-28T05:46:15;-0.40;98.30
33067;DHT22;19428;49.024;8.366;2023-02-28T05:48:42;-0.40;98.00
33067;DHT22;19428;49.024;8.366;2023-02-28T05:51:08;-0.30;98.20
33067;DHT22;19428;49.024;8.366;2023-02-28T05:53:34;-0.30;98.10
33067;DHT22;19428;49.024;8.366;2023-02-28T05:56:00;-0.30;97.90
33067;DHT22;19428;49.024;8.366;2023-02-28T05:58:26;-0.30;97.90
33067;DHT22;19428;49.024;8.366;2023-02-28T06:00:58;-0.30;98.00
33067;DHT22;19428;49.024;8.366;2023-02-28T06:03:24;-0.30;98.00
33067;DHT22;19428;49.024;8.366;2023-02-28T06:05:51;-0.30;98.10
33067;DHT22;19428;49.024;8.366;2023-02-28T06:08:16;-0.30;98.00
33067;DHT22;19428;49.024;8.366;2023-02-28T06:10:42;-0.20;98.00
33067;DHT22;19428;49.024;8.366;2023-02-28T06:13:08;-0.30;98.00
33067;DHT22;19428;49.024;8.366;2023-02-28T06:15:33;-0.30;98.50
33067;DHT22;19428;49.024;8.366;2023-02-28T06:17:59;-0.20;97.90
33067;DHT22;19428;49.024;8.366;2023-02-28T06:20:26;-0.20;97.90
33067;DHT22;19428;49.024;8.366;2023-02-28T06:22:56;-0.20;98.00
33067;DHT22;19428;49.024;8.366;2023-02-28T06:25:24;-0.10;97.90
33067;DHT22;19428;49.024;8.366;2023-02-28T06:27:49;-0.10;97.90
33067;DHT22;19428;49.024;8.366;2023-02-28T06:30:15;-0.10;97.60
33067;DHT22;19428;49.024;8.366;2023-02-28T06:32:40;0.00;97.60
33067;DHT22;19428;49.024;8.366;2023-02-28T06:35:06;0.00;97.40
33067;DHT22;19428;49.024;8.366;2023-02-28T06:37:32;0.00;97.30
33067;DHT22;19428;49.024;8.366;2023-02-28T06:39:58;0.00;97.30
33067;DHT22;19428;49.024;8.366;2023-02-28T06:42:24;0.00;97.00
33067;DHT22;19428;49.024;8.366;2023-02-28T06:44:56;0.00;97.00
33067;DHT22;19428;49.024;8.366;2023-02-28T06:47:21;0.10;96.90
33067;DHT22;19428;49.024;8.366;2023-02-28T06:49:47;0.10;96.90
33067;DHT22;19428;49.024;8.366;2023-02-28T06:52:14;0.10;97.00
33067;DHT22;19428;49.024;8.366;2023-02-28T06:54:40;0.10;96.80
33067;DHT22;19428;49.024;8.366;2023-02-28T06:57:06;0.10;96.80
33067;DHT22;19428;49.024;8.366;2023-02-28T06:59:32;0.20;96.70
33067;DHT22;19428;49.024;8.366;2023-02-28T07:01:57;0.20;96.40
33067;DHT22;19428;49.024;8.366;2023-02-28T07:04:23;0.20;96.50
33067;DHT22;19428;49.024;8.366;2023-02-28T07:06:48;0.20;96.30
33067;DHT22;19428;49.024;8.366;2023-02-28T07:09:14;0.30;96.70
33067;DHT22;19428;49.024;8.366;2023-02-28T07:11:40;0.30;96.10
33067;DHT22;19428;49.024;8.366;2023-02-28T07:14:07;0.30;96.10
33067;DHT22;19428;49.024;8.366;2023-02-28T07:16:32;0.30;96.40
33067;DHT22;19428;49.024;8.366;2023-02-28T07:18:58;0.30;96.20
33067;DHT22;19428;49.024;8.366;2023-02-28T07:21:24;0.40;96.10
33067;DHT22;19428;49.024;8.366;2023-02-28T07:23:50;0.30;95.80
33067;DHT22;19428;49.024;8.366;2023-02-28T07:26:17;0.40;96.10
33067;DHT22;19428;49.024;8.366;2023-02-28T07:28:44;0.40;95.90
33067;DHT22;19428;49.024;8.366;2023-02-28T07:31:10;0.40;96.00
33067;DHT22;19428;49.024;8.366;2023-02-28T07:33:36;0.40;95.80
33067;DHT22;19428;49.024;8.366;2023-02-28T07:39:24;0.50;95.70
33067;DHT22;19428;49.024;8.366;2023-02-28T07:41:49;0.50;95.60
33067;DHT22;19428;49.024;8.366;2023-02-28T07:44:15;0.50;95.50
33067;DHT22;19428;49.024;8.366;2023-02-28T07:46:41;0.50;95.10
33067;DHT22;19428;49.024;8.366;2023-02-28T07:49:07;0.50;95.00
33067;DHT22;19428;49.024;8.366;2023-02-28T07:51:32;0.60;95.30
33067;DHT22;19428;49.024;8.366;2023-02-28T07:53:58;0.60;95.20
33067;DHT22;19428;49.024;8.366;2023-02-28T07:56:23;0.70;94.90
33067;DHT22;19428;49.024;8.366;2023-02-28T07:58:49;0.70;94.90
33067;DHT22;19428;49.024;8.366;2023-02-28T08:01:14;0.70;94.70
33067;DHT22;19428;49.024;8.366;2023-02-28T08:03:41;0.60;94.90
33067;DHT22;19428;49.024;8.366;2023-02-28T08:06:08;0.70;94.60
33067;DHT22;19428;49.024;8.366;2023-02-28T08:08:39;0.70;94.50
33067;DHT22;19428;49.024;8.366;2023-02-28T08:11:05;0.70;94.30
33067;DHT22;19428;49.024;8.366;2023-02-28T08:13:30;0.70;94.40
33067;DHT22;19428;49.024;8.366;2023-02-28T08:15:56;0.70;94.30
33067;DHT22;19428;49.024;8.366;2023-02-28T08:18:22;0.80;94.00
33067;DHT22;19428;49.024;8.366;2023-02-28T08:20:48;0.90;94.00
33067;DHT22;19428;49.024;8.366;2023-02-28T08:23:14;1.00;93.80
33067;DHT22;19428;49.024;8.366;2023-02-28T08:25:40;0.90;93.60
33067;DHT22;19428;49.024;8.366;2023-02-28T08:28:06;0.80;93.40
33067;DHT22;19428;49.024;8.366;2023-02-28T08:30:31;0.90;93.60
33067;DHT22;19428;49.024;8.366;2023-02-28T08:32:57;1.10;93.30
33067;DHT22;19428;49.024;8.366;2023-02-28T08:35:23;1.20;93.30
33067;DHT22;19428;49.024;8.366;2023-02-28T08:37:49;1.10;92.90
33067;DHT22;19428;49.024;8.366;2023-02-28T08:40:15;1.10;92.90
33067;DHT22;19428;49.024;8.366;2023-02-28T08:42:44;1.40;93.10
33067;DHT22;19428;49.024;8.366;2023-02-28T08:45:11;1.10;92.50
33067;DHT22;19428;49.024;8.366;2023-02-28T08:47:36;1.20;92.50
33067;DHT22;19428;49.024;8.366;2023-02-28T08:50:03;1.10;92.00
33067;DHT22;19428;49.024;8.366;2023-02-28T08:52:28;1.30;92.10
33067;DHT22;19428;49.024;8.366;2023-02-28T08:54:54;1.20;91.90
33067;DHT22;19428;49.024;8.366;2023-02-28T08:57:19;1.10;91.70
33067;DHT22;19428;49.024;8.366;2023-02-28T08:59:45;1.30;91.80
33067;DHT22;19428;49.024;8.366;2023-02-28T09:02:13;1.20;91.80
33067;DHT22;19428;49.024;8.366;2023-02-28T09:04:40;1.40;91.90
33067;DHT22;19428;49.024;8.366;2023-02-28T09:07:05;1.40;91.90
33067;DHT22;19428;49.024;8.366;2023-02-28T09:09:31;1.40;91.60
33067;DHT22;19428;49.024;8.366;2023-02-28T09:11:57;1.60;92.00
33067;DHT22;19428;49.024;8.366;2023-02-28T09:14:22;1.60;91.00
33067;DHT22;19428;49.024;8.366;2023-02-28T09:16:48;1.70;91.00
33067;DHT22;19428;49.024;8.366;2023-02-28T09:19:14;1.50;90.80
33067;DHT22;19428;49.024;8.366;2023-02-28T09:21:39;1.80;90.90
33067;DHT22;19428;49.024;8.366;2023-02-28T09:24:05;1.70;90.40
33067;DHT22;19428;49.024;8.366;2023-02-28T09:26:31;1.80;90.30
33067;DHT22;19428;49.024;8.366;2023-02-28T09:28:57;2.00;90.40
33067;DHT22;19428;49.024;8.366;2023-02-28T09:31:26;2.00;89.90
33067;DHT22;19428;49.024;8.366;2023-02-28T09:33:55;1.90;89.70
33067;DHT22;19428;49.024;8.366;2023-02-28T09:36:21;2.10;90.00
33067;DHT22;19428;49.024;8.366;2023-02-28T09:38:47;2.10;88.60
33067;DHT22;19428;49.024;8.366;2023-02-28T09:41:25;2.00;88.50
33067;DHT22;19428;49.024;8.366;2023-02-28T09:43:55;2.10;87.10
33067;DHT22;19428;49.024;8.366;2023-02-28T09:46:40;2.30;88.10
33067;DHT22;19428;49.024;8.366;2023-02-28T09:49:14;2.20;87.00
33067;DHT22;19428;49.024;8.366;2023-02-28T09:54:19;2.40;87.10
33067;DHT22;19428;49.024;8.366;2023-02-28T09:57:04;2.70;86.60
33067;DHT22;19428;49.024;8.366;2023-02-28T09:59:42;2.40;84.70
33067;DHT22;19428;49.024;8.366;2023-02-28T10:05:12;2.60;84.40
33067;DHT22;19428;49.024;8.366;2023-02-28T10:07:42;2.90;84.40
33067;DHT22;19428;49.024;8.366;2023-02-28T10:10:40;2.90;81.70
33067;DHT22;19428;49.024;8.366;2023-02-28T10:13:17;3.10;81.80
33067;DHT22;19428;49.024;8.366;2023-02-28T10:15:46;2.80;80.80
33067;DHT22;19428;49.024;8.366;2023-02-28T10:18:15;2.80;82.10
33067;DHT22;19428;49.024;8.366;2023-02-28T10:20:45;3.20;82.40
33067;DHT22;19428;49.024;8.366;2023-02-28T10:23:25;2.90;78.20
33067;DHT22;19428;49.024;8.366;2023-02-28T10:26:18;3.10;80.70
33067;DHT22;19428;49.024;8.366;2023-02-28T10:28:43;3.20;78.60
33067;DHT22;19428;49.024;8.366;2023-02-28T10:31:17;3.10;77.80
33067;DHT22;19428;49.024;8.366;2023-02-28T10:33:44;3.00;78.40
33067;DHT22;19428;49.024;8.366;2023-02-28T10:39:37;3.20;77.30
33067;DHT22;19428;49.024;8.366;2023-02-28T10:42:03;3.20;77.40
33067;DHT22;19428;49.024;8.366;2023-02-28T10:44:29;3.60;77.00
33067;DHT22;19428;49.024;8.366;2023-02-28T10:46:55;3.20;76.80
33067;DHT22;19428;49.024;8.366;2023-02-28T10:49:26;3.20;76.80
33067;DHT22;19428;49.024;8.366;2023-02-28T10:51:54;3.10;76.80
33067;DHT22;19428;49.024;8.366;2023-02-28T10:54:31;3.20;76.40
33067;DHT22;19428;49.024;8.366;2023-02-28T10:57:08;3.60;75.00
33067;DHT22;19428;49.024;8.366;2023-02-28T10:59:34;3.90;75.20
33067;DHT22;19428;49.024;8.366;2023-02-28T11:02:00;4.10;75.30
33067;DHT22;19428;49.024;8.366;2023-02-28T11:07:21;4.10;73.90
33067;DHT22;19428;49.024;8.366;2023-02-28T11:09:52;3.90;72.30
33067;DHT22;19428;49.024;8.366;2023-02-28T11:12:31;3.50;73.90
33067;DHT22;19428;49.024;8.366;2023-02-28T11:15:01;3.50;73.40
33067;DHT22;19428;49.024;8.366;2023-02-28T11:17:29;3.30;74.20
33067;DHT22;19428;49.024;8.366;2023-02-28T11:20:03;3.20;74.10
33067;DHT22;19428;49.024;8.366;2023-02-28T11:22:33;3.40;74.70
33067;DHT22;19428;49.024;8.366;2023-02-28T11:25:07;3.40;73.80
33067;DHT22;19428;49.024;8.366;2023-02-28T11:27:44;3.30;74.30
33067;DHT22;19428;49.024;8.366;2023-02-28T11:32:59;3.40;74.00
33067;DHT22;19428;49.024;8.366;2023-02-28T11:35:34;3.40;73.30
33067;DHT22;19428;49.024;8.366;2023-02-28T11:38:02;3.40;73.40
33067;DHT22;19428;49.024;8.366;2023-02-28T11:43:20;3.60;72.60
33067;DHT22;19428;49.024;8.366;2023-02-28T11:49:32;3.50;72.00
33067;DHT22;19428;49.024;8.366;2023-02-28T11:54:59;4.00;71.10
33067;DHT22;19428;49.024;8.366;2023-02-28T11:57:38;4.20;70.30
33067;DHT22;19428;49.024;8.366;2023-02-28T12:03:26;4.00;69.80
33067;DHT22;19428;49.024;8.366;2023-02-28T12:05:57;4.20;71.10
33067;DHT22;19428;49.024;8.366;2023-02-28T12:16:59;4.30;69.70
33067;DHT22;19428;49.024;8.366;2023-02-28T12:19:53;4.10;67.90
33067;DHT22;19428;49.024;8.366;2023-02-28T12:22:30;4.30;67.90
33067;DHT22;19428;49.024;8.366;2023-02-28T12:27:48;4.50;66.70
33067;DHT22;19428;49.024;8.366;2023-02-28T12:30:35;4.40;65.70
33067;DHT22;19428;49.024;8.366;2023-02-28T12:33:09;4.50;67.10
33067;DHT22;19428;49.024;8.366;2023-02-28T12:35:52;4.50;65.90
33067;DHT22;19428;49.024;8.366;2023-02-28T12:38:41;4.50;66.60
33067;DHT22;19428;49.024;8.366;2023-02-28T12:41:40;4.60;64.40
33067;DHT22;19428;49.024;8.366;2023-02-28T12:44:11;4.50;65.20
33067;DHT22;19428;49.024;8.366;2023-02-28T12:46:50;4.80;66.00
33067;DHT22;19428;49.024;8.366;2023-02-28T12:49:30;4.70;64.50
33067;DHT22;19428;49.024;8.366;2023-02-28T12:51:59;5.10;66.40
33067;DHT22;19428;49.024;8.366;2023-02-28T12:54:56;5.00;62.70
33067;DHT22;19428;49.024;8.366;2023-02-28T12:57:40;5.60;62.60
33067;DHT22;19428;49.024;8.366;2023-02-28T13:00:14;5.60;60.10
33067;DHT22;19428;49.024;8.366;2023-02-28T13:05:49;5.20;58.20
33067;DHT22;19428;49.024;8.366;2023-02-28T13:11:30;4.90;58.50
33067;DHT22;19428;49.024;8.366;2023-02-28T13:14:05;5.40;58.30
33067;DHT22;19428;49.024;8.366;2023-02-28T13:16:55;5.70;57.00
33067;DHT22;19428;49.024;8.366;2023-02-28T13:19:25;5.30;57.60
33067;DHT22;19428;49.024;8.366;2023-02-28T13:21:51;5.40;58.10
33067;DHT22;19428;49.024;8.366;2023-02-28T13:24:41;5.50;57.80
33067;DHT22;19428;49.024;8.366;2023-02-28T13:29:36;5.20;58.80
33067;DHT22;19428;49.024;8.366;2023-02-28T13:34:35;5.50;57.40
33067;DHT22;19428;49.024;8.366;2023-02-28T13:39:49;5.40;57.50
33067;DHT22;19428;49.024;8.366;2023-02-28T13:47:41;5.80;56.10
33067;DHT22;19428;49.024;8.366;2023-02-28T14:01:52;5.40;56.20
33067;DHT22;19428;49.024;8.366;2023-02-28T14:07:08;5.40;56.50
33067;DHT22;19428;49.024;8.366;2023-02-28T14:09:40;5.60;56.90
33067;DHT22;19428;49.024;8.366;2023-02-28T14:18:17;5.50;56.50
33067;DHT22;19428;49.024;8.366;2023-02-28T14:20:46;5.30;56.60
33067;DHT22;19428;49.024;8.366;2023-02-28T14:23:25;5.40;56.50
33067;DHT22;19428;49.024;8.366;2023-02-28T14:31:25;5.70;58.10
33067;DHT22;19428;49.024;8.366;2023-02-28T14:34:34;5.90;56.90
33067;DHT22;19428;49.024;8.366;2023-02-28T14:37:04;6.20;55.40
33067;DHT22;19428;49.024;8.366;2023-02-28T14:39:31;6.30;54.70
33067;DHT22;19428;49.024;8.366;2023-02-28T14:41:58;6.20;54.20
33067;DHT22;19428;49.024;8.366;2023-02-28T14:44:30;5.90;55.10
33067;DHT22;19428;49.024;8.366;2023-02-28T14:47:00;5.70;55.90
33067;DHT22;19428;49.024;8.366;2023-02-28T14:49:42;5.60;56.20
33067;DHT22;19428;49.024;8.366;2023-02-28T14:52:15;5.60;56.50
33067;DHT22;19428;49.024;8.366;2023-02-28T14:54:43;5.60;55.20
33067;DHT22;19428;49.024;8.366;2023-02-28T14:58:18;5.60;55.10
33067;DHT22;19428;49.024;8.366;2023-02-28T15:02:42;5.70;55.50
33067;DHT22;19428;49.024;8.366;2023-02-28T15:07:39;5.60;55.30
33067;DHT22;19428;49.024;8.366;2023-02-28T15:10:23;5.50;55.60
33067;DHT22;19428;49.024;8.366;2023-02-28T15:12:53;5.40;55.40
33067;DHT22;19428;49.024;8.366;2023-02-28T15:15:20;5.50;54.90
33067;DHT22;19428;49.024;8.366;2023-02-28T15:17:53;5.60;54.60
33067;DHT22;19428;49.024;8.366;2023-02-28T15:20:21;5.70;54.80
33067;DHT22;19428;49.024;8.366;2023-02-28T15:22:50;5.70;54.60
33067;DHT22;19428;49.024;8.366;2023-02-28T15:25:20;5.80;55.60
33067;DHT22;19428;49.024;8.366;2023-02-28T15:27:49;5.70;54.30
33067;DHT22;19428;49.024;8.366;2023-02-28T15:30:25;5.70;54.10
33067;DHT22;19428;49.024;8.366;2023-02-28T15:33:25;5.70;54.40
33067;DHT22;19428;49.024;8.366;2023-02-28T15:35:48;5.70;54.40
33067;DHT22;19428;49.024;8.366;2023-02-28T15:38:17;5.50;54.80
33067;DHT22;19428;49.024;8.366;2023-02-28T15:40:45;5.60;54.60
33067;DHT22;19428;49.024;8.366;2023-02-28T15:45:55;5.60;54.30
33067;DHT22;19428;49.024;8.366;2023-02-28T15:48:22;5.60;54.50
33067;DHT22;19428;49.024;8.366;2023-02-28T15:50:51;5.60;54.40
33067;DHT22;19428;49.024;8.366;2023-02-28T15:53:32;5.60;54.70
33067;DHT22;19428;49.024;8.366;2023-02-28T15:56:05;5.60;55.20
33067;DHT22;19428;49.024;8.366;2023-02-28T15:58:32;5.60;54.80
33067;DHT22;19428;49.024;8.366;2023-02-28T16:01:25;5.60;54.60
33067;DHT22;19428;49.024;8.366;2023-02-28T16:03:54;5.50;55.00
33067;DHT22;19428;49.024;8.366;2023-02-28T16:09:09;5.40;55.70
33067;DHT22;19428;49.024;8.366;2023-02-28T16:11:40;5.40;55.20
33067;DHT22;19428;49.024;8.366;2023-02-28T16:14:08;5.40;55.70
33067;DHT22;19428;49.024;8.366;2023-02-28T16:16:42;5.30;55.60
33067;DHT22;19428;49.024;8.366;2023-02-28T16:19:09;5.20;55.80
33067;DHT22;19428;49.024;8.366;2023-02-28T16:21:34;5.20;55.60
33067;DHT22;19428;49.024;8.366;2023-02-28T16:24:00;5.10;56.10
33067;DHT22;19428;49.024;8.366;2023-02-28T16:26:25;5.10;56.10
33067;DHT22;19428;49.024;8.366;2023-02-28T16:28:52;5.10;56.80
33067;DHT22;19428;49.024;8.366;2023-02-28T16:31:19;5.00;56.50
33067;DHT22;19428;49.024;8.366;2023-02-28T16:33:45;5.00;56.70
33067;DHT22;19428;49.024;8.366;2023-02-28T16:36:14;4.90;57.10
33067;DHT22;19428;49.024;8.366;2023-02-28T16:38:40;4.90;57.50
33067;DHT22;19428;49.024;8.366;2023-02-28T16:41:06;4.90;57.70
33067;DHT22;19428;49.024;8.366;2023-02-28T16:43:31;4.80;58.10
33067;DHT22;19428;49.024;8.366;2023-02-28T16:45:58;4.70;58.10
33067;DHT22;19428;49.024;8.366;2023-02-28T16:48:24;4.80;57.80
33067;DHT22;19428;49.024;8.366;2023-02-28T16:50:51;4.80;57.70
33067;DHT22;19428;49.024;8.366;2023-02-28T16:53:16;4.70;58.40
33067;DHT22;19428;49.024;8.366;2023-02-28T16:55:42;4.60;59.10
33067;DHT22;19428;49.024;8.366;2023-02-28T16:58:14;4.60;58.80
33067;DHT22;19428;49.024;8.366;2023-02-28T17:00:40;4.50;59.50
33067;DHT22;19428;49.024;8.366;2023-02-28T17:03:26;4.50;58.80
33067;DHT22;19428;49.024;8.366;2023-02-28T17:05:52;4.50;58.70
33067;DHT22;19428;49.024;8.366;2023-02-28T17:08:17;4.40;59.30
33067;DHT22;19428;49.024;8.366;2023-02-28T17:10:43;4.30;59.80
33067;DHT22;19428;49.024;8.366;2023-02-28T17:13:09;4.40;59.90
33067;DHT22;19428;49.024;8.366;2023-02-28T17:15:35;4.30;60.20
33067;DHT22;19428;49.024;8.366;2023-02-28T17:18:01;4.20;61.20
33067;DHT22;19428;49.024;8.366;2023-02-28T17:20:27;4.20;60.50
33067;DHT22;19428;49.024;8.366;2023-02-28T17:22:53;4.20;61.10
33067;DHT22;19428;49.024;8.366;2023-02-28T17:25:19;4.00;62.10
33067;DHT22;19428;49.024;8.366;2023-02-28T17:27:46;4.00;61.80
33067;DHT22;19428;49.024;8.366;2023-02-28T17:30:18;3.90;62.70
33067;DHT22;19428;49.024;8.366;2023-02-28T17:32:43;4.00;62.30
33067;DHT22;19428;49.024;8.366;2023-02-28T17:35:09;4.00;62.50
33067;DHT22;19428;49.024;8.366;2023-02-28T17:37:35;3.90;62.50
33067;DHT22;19428;49.024;8.366;2023-02-28T17:40:01;3.90;63.30
33067;DHT22;19428;49.024;8.366;2023-02-28T17:42:27;3.80;63.50
33067;DHT22;19428;49.024;8.366;2023-02-28T17:44:52;3.70;63.80
33067;DHT22;19428;49.024;8.366;2023-02-28T17:47:18;3.60;64.10
33067;DHT22;19428;49.024;8.366;2023-02-28T17:49:43;3.60;64.40
33067;DHT22;19428;49.024;8.366;2023-02-28T17:52:09;3.70;63.90
33067;DHT22;19428;49.024;8.366;2023-02-28T17:54:34;3.70;63.90
33067;DHT22;19428;49.024;8.366;2023-02-28T17:57:00;3.80;63.20
33067;DHT22;19428;49.024;8.366;2023-02-28T17:59:26;3.70;64.30
33067;DHT22;19428;49.024;8.366;2023-02-28T18:02:01;3.60;64.30
33067;DHT22;19428;49.024;8.366;2023-02-28T18:04:26;3.60;64.20
33067;DHT22;19428;49.024;8.366;2023-02-28T18:06:53;3.70;64.10
33067;DHT22;19428;49.024;8.366;2023-02-28T18:09:21;3.70;63.90
33067;DHT22;19428;49.024;8.366;2023-02-28T18:11:47;3.50;65.10